Terminal Aerodrome Forecast
Issued by NWS Corpus Christi, TX

Current Version | Previous Version | Text Only | Print | Product List | Glossary On
Versions: 1 2 3 4 5 6 7 8 9
000
FTUS44 KCRP 261100
TAFVCT
TAF
KVCT 261129Z 2612/2712 14006KT P6SM SCT020 OVC050
     FM261400 15006KT P6SM VCSH BKN020
     FM261700 16014KT P6SM SCT008 OVC015
     FM262300 15009KT P6SM SCT015 OVC040
     FM270400 15006KT 4SM BR OVC007=

USA.gov is the U.S. government's official web portal to all federal, state and local government web resources and services.